Terminal Aerodrome Forecast
Issued by NWS Pendleton, OR

Home | Current Version | Previous Version | Text Only | Print | Product List | Glossary On
Versions: 1 2 3 4 5 6 7 8 9 10 11 12
000
FTUS46 KPDT 012330
TAFPDT
TAF
KPDT 012330Z 0200/0224 33009KT P6SM SCT300
     FM020500 14007KT P6SM FEW150 SCT200
     FM021200 16005KT P6SM SCT150 BKN200
     FM021700 32009KT P6SM FEW120 BKN150=

USA.gov is the U.S. government's official web portal to all federal, state and local government web resources and services.